Delta Virtual Airport Information Service

Honolulu International Airport

ICAO: PHNL Country: United States
Latitude: 21.3187 Longitude: -157.922
Latest Arrival : UAL1170 (2A) (KLAX-PHNL) Latest Departure : SWA451 (PHNL-PHKO)


WX CaptureLIVE
Data provided by noaa.gov | Fetched at 00:05:28

METAR : PHNL 250453Z 05009KT 10SM FEW025 FEW040 27/18 A3003 RMK AO2 SLP170 T02670178

TAF : PHNL 250302Z 2503/2606 05011KT P6SM FEW025 SCT040 SCT060 FM250500 07007KT P6SM FEW025 SCT050 FM252100 12010KT P6SM FEW025 SCT040 FM260500 08007KT P6SM FEW025 SCT045


Runway Data for PHNL
Data provided by openaviationdata.com

Runway ID Mag Var Hdg Length Elevation Surface ILS Freq ILS Id ILS Slope
04L 11 41° 6958 ft 13 ft Asphalt -- -- --
04R 11 41° 9009 ft 13 ft Asphalt 110.5 IIUM 3
08L 11 79° 12294 ft 13 ft Asphalt 111.7 IHNL 3
08R 11 79° 11995 ft 13 ft Asphalt -- -- --
22L 11 221° 9009 ft 13 ft Asphalt -- -- --
22R 11 221° 6958 ft 13 ft Asphalt -- -- --
26L 11 259° 11995 ft 13 ft Asphalt 109.1 IEPC 0
26R 11 259° 12294 ft 13 ft Asphalt -- -- --

Honolulu International Airport, United States
Use only for reference purposes



Not for navigational purposes.